Flight Track Log - Related Links

Times and Time Zones

All times are in EDT time to prevent confusion due to time zone crossing. See the N75ZM flight status page for this flight to view local times or setup timezone preferences in your user account.

Time Position Orientation Groundspeed Altitude Reporting Facility
EDT Latitude Longitude Course Direction KTS MPH feet Rate Location/Type
Thu 05:21:00 PM 33.9333 -84.3333 90° East 127 146 2,700  Level Atlanta TRACON
Thu 05:22:00 PM 33.9667 -84.3500 337° Northwest 144 166 3,500 842 Climbing Atlanta TRACON
Thu 05:22:54 PM 33.9833 -84.3167 59° Northeast 147 169 4,300 800 Climbing Atlanta TRACON
Thu 05:24:00 PM 33.9833 -84.2500 90° East 154 177 5,100 381 Climbing Atlanta TRACON
Thu 05:25:00 PM 33.9833 -84.2000 90° East 172 198 5,100  Level Atlanta TRACON
Thu 05:26:00 PM 33.8667 -83.9105 90° East  Level FlightAware Approximate
Thu 05:26:00 PM 33.9833 -84.1333 90° East 178 205 5,100  Level Atlanta TRACON
Thu 05:26:54 PM 33.9833 -84.0833 90° East 168 193 5,600 650 Climbing Atlanta TRACON
Thu 05:28:00 PM 33.9833 -84.0333 90° East 149 171 6,400 700 Climbing Atlanta TRACON
Thu 05:28:54 PM 33.9833 -83.9833 90° East 148 170 7,000 368 Climbing Atlanta TRACON
Thu 05:29:54 PM 33.9833 -83.9333 90° East 175 201 7,100 50 Climbing Atlanta TRACON
Thu 05:30:54 PM 33.9667 -83.8667 107° East 187 215 7,100  Level Atlanta TRACON
Thu 05:31:54 PM 33.9667 -83.8000 90° East 185 213 7,100  Level Atlanta TRACON
Thu 05:32:54 PM 33.9667 -83.7500 90° East 182 209 7,100 -50 Level Atlanta TRACON
Thu 05:33:54 PM 33.9667 -83.6833 90° East 182 209 7,000 -50 Descending Atlanta TRACON
Thu 05:34:54 PM 33.9667 -83.6167 90° East 183 211 7,000  Level Atlanta TRACON
Thu 05:35:54 PM 33.9667 -83.5500 90° East 187 215 7,000  Level Atlanta TRACON
Thu 05:36:54 PM 33.9500 -83.5000 112° Southeast 189 217 7,000  Level Atlanta TRACON
Thu 05:37:54 PM 33.9500 -83.4333 90° East 191 220 7,000  Level Atlanta TRACON
Thu 05:38:55 PM 33.9500 -83.3667 90° East 189 217 7,000  Level Atlanta TRACON
Thu 05:39:55 PM 33.9500 -83.3000 90° East 189 217 7,000  Level Atlanta TRACON
Thu 05:40:55 PM 33.9333 -83.2500 112° Southeast 193 222 7,000  Level Atlanta TRACON
Thu 05:41:55 PM 33.9167 -83.1833 107° East 192 221 7,000  Level Atlanta TRACON
Thu 05:42:55 PM 33.9000 -83.1167 107° East 193 222 7,000  Level Atlanta TRACON
Thu 05:44:00 PM 33.8899 -83.0478 109° East  Level FlightAware Approximate
Thu 05:51:00 PM 33.7979 -82.6083 107° East  Level FlightAware Approximate
Thu 05:52:00 PM 33.7824 -82.5462 107° East  Level FlightAware Approximate
Thu 05:53:00 PM 33.7668 -82.4841 107° East  Level FlightAware Approximate
Thu 05:54:00 PM 33.7543 -82.4210 103° East  Level FlightAware Approximate
Thu 05:55:00 PM 33.7417 -82.3580 103° East  Level FlightAware Approximate
Thu 05:56:00 PM 33.7291 -82.2950 103° East  Level FlightAware Approximate
Thu 05:57:00 PM 33.7165 -82.2319 104° East  Level FlightAware Approximate
Thu 05:58:00 PM 33.7038 -82.1690 104° East  Level FlightAware Approximate
Thu 05:59:00 PM 33.6843 -82.1088 115° Southeast  Level FlightAware Approximate
Thu 06:00:00 PM 33.6618 -82.0499 115° Southeast  Level FlightAware Approximate
Thu 06:01:00 PM 33.6393 -81.9911 115° Southeast  Level FlightAware Approximate
Thu 06:02:00 PM 33.6168 -81.9323 115° Southeast  Level FlightAware Approximate
Thu 06:03:00 PM 33.5942 -81.8735 115° Southeast  Level FlightAware Approximate
Thu 06:04:00 PM 33.5717 -81.8148 115° Southeast  Level FlightAware Approximate
Thu 06:05:00 PM 33.5490 -81.7560 115° Southeast  Level FlightAware Approximate
Thu 06:06:00 PM 33.5264 -81.6973 115° Southeast  Level FlightAware Approximate
Thu 06:07:00 PM 33.5037 -81.6387 115° Southeast  Level FlightAware Approximate
Thu 06:08:00 PM 33.4810 -81.5800 115° Southeast  Level FlightAware Approximate
Thu 06:09:00 PM 33.4583 -81.5214 115° Southeast  Level FlightAware Approximate
Thu 06:10:00 PM 33.4359 -81.4627 114° Southeast  Level FlightAware Approximate
Thu 06:11:00 PM 33.4137 -81.4038 114° Southeast  Level FlightAware Approximate
Thu 06:12:00 PM 33.3914 -81.3450 114° Southeast  Level FlightAware Approximate
Thu 06:13:00 PM 33.3692 -81.2862 114° Southeast  Level FlightAware Approximate
Thu 06:14:00 PM 33.3469 -81.2275 114° Southeast  Level FlightAware Approximate
Thu 06:15:00 PM 33.3245 -81.1688 114° Southeast  Level FlightAware Approximate
Thu 06:16:00 PM 33.3021 -81.1101 114° Southeast  Level FlightAware Approximate
Thu 06:17:00 PM 33.2798 -81.0514 115° Southeast  Level FlightAware Approximate
Thu 06:18:00 PM 33.2573 -80.9928 115° Southeast  Level FlightAware Approximate
Thu 06:19:00 PM 33.2349 -80.9342 115° Southeast  Level FlightAware Approximate
Thu 06:20:00 PM 33.2124 -80.8756 115° Southeast  Level FlightAware Approximate
Thu 06:21:00 PM 33.1899 -80.8171 115° Southeast  Level FlightAware Approximate
Thu 06:22:00 PM 33.1673 -80.7586 115° Southeast  Level FlightAware Approximate
Thu 06:23:00 PM 33.1446 -80.7002 115° Southeast  Level FlightAware Approximate
Thu 06:24:00 PM 33.1219 -80.6418 115° Southeast  Level FlightAware Approximate
Thu 06:25:00 PM 33.0992 -80.5834 115° Southeast  Level FlightAware Approximate
Thu 06:26:00 PM 33.0765 -80.5251 115° Southeast  Level FlightAware Approximate
Thu 06:27:00 PM 33.0553 -80.4660 112° Southeast  Level FlightAware Approximate
Thu 06:28:00 PM 33.0354 -80.4062 112° Southeast  Level FlightAware Approximate
Thu 06:29:00 PM 33.0152 -80.3466 117° Southeast  Level FlightAware Approximate
Thu 06:30:00 PM 32.9907 -80.2893 117° Southeast  Level FlightAware Approximate
Thu 06:31:00 PM 32.9662 -80.2321 117° Southeast  Level FlightAware Approximate
Thu 06:32:00 PM 32.9417 -80.1749 117° Southeast  Level FlightAware Approximate
Thu 06:33:00 PM 32.9171 -80.1177 117° Southeast  Level FlightAware Approximate
Thu 06:34:00 PM 32.8939 -80.0598 115° Southeast  Level FlightAware Approximate
Thu 06:35:00 PM 32.8986 -80.0405 115° Southeast  Level Estimated
Thu 06:36:00 PM 32.8986 -80.0405 115° Southeast  Level Estimated
Thu 06:37:00 PM 32.8986 -80.0405 115° Southeast  Level Estimated
Thu 06:38:00 PM 32.8986 -80.0405 115° Southeast  Level Estimated
Thu 06:39:00 PM 32.8986 -80.0405 115° Southeast  Level Estimated
Thu 06:40:00 PM 32.8986 -80.0405 115° Southeast  Level Estimated
Thu 06:41:00 PM 32.8986 -80.0405 115° Southeast  Level Estimated
Thu 06:42:00 PM 32.8986 -80.0405 115° Southeast  Level Estimated
Thu 06:43:00 PM 32.8986 -80.0405 115° Southeast  Level Estimated
Thu 06:44:00 PM 32.8986 -80.0405 115° Southeast  Level Estimated
Thu 06:45:00 PM 32.8986 -80.0405 115° Southeast  Level Estimated
Thu 06:46:00 PM 32.8986 -80.0405 115° Southeast  Level Estimated

Login

Don't have an account? Register now (free) for customized features, flight alerts, and more!